createdAt,value
2023-12-15T00:01:58.546Z,7.82
2023-12-15T00:07:23.526Z,7.80
2023-12-15T00:12:50.489Z,6.82
2023-12-15T00:18:15.610Z,7.30
2023-12-15T00:23:40.445Z,6.90
2023-12-15T00:29:08.498Z,7.10
2023-12-15T00:34:32.485Z,7.55
2023-12-15T00:39:57.462Z,6.97
2023-12-15T00:45:31.477Z,6.93
2023-12-15T00:50:56.448Z,7.30
2023-12-15T00:56:26.508Z,6.58
2023-12-15T01:01:54.505Z,7.50
2023-12-15T01:07:19.565Z,7.88
2023-12-15T01:12:44.476Z,6.78
2023-12-15T01:18:11.585Z,8.90
2023-12-15T01:23:36.497Z,8.35
2023-12-15T01:29:00.507Z,6.57
2023-12-15T01:34:28.456Z,7.38
2023-12-15T01:39:52.476Z,7.88
2023-12-15T01:45:24.489Z,7.82
2023-12-15T01:50:52.472Z,7.82
2023-12-15T01:56:25.478Z,7.20
2023-12-15T02:01:50.530Z,7.07
2023-12-15T02:07:17.491Z,7.20
2023-12-15T02:12:42.523Z,7.90
2023-12-15T02:18:06.615Z,7.50
2023-12-15T02:23:34.578Z,7.80
2023-12-15T02:28:58.507Z,7.60
2023-12-15T02:34:23.539Z,9.18
2023-12-15T02:39:50.487Z,8.93
2023-12-15T02:45:23.526Z,9.18
2023-12-15T02:50:48.507Z,10.52
2023-12-15T02:56:15.543Z,9.95
2023-12-15T03:01:40.519Z,9.70
2023-12-15T03:07:04.511Z,8.65
2023-12-15T03:12:32.537Z,8.52
2023-12-15T03:17:56.556Z,9.50
2023-12-15T03:23:21.559Z,10.50
2023-12-15T03:28:48.513Z,10.50
2023-12-15T03:34:13.500Z,10.40
2023-12-15T03:39:37.500Z,9.57
2023-12-15T03:45:05.594Z,10.60
2023-12-15T03:50:29.573Z,11.50
2023-12-15T03:55:54.569Z,11.27
2023-12-15T04:01:22.569Z,10.45
2023-12-15T04:06:47.520Z,10.98
2023-12-15T04:12:11.534Z,12.60
2023-12-15T04:17:40.099Z,12.65
2023-12-15T04:23:04.572Z,13.88
2023-12-15T04:28:29.558Z,14.20
2023-12-15T04:33:56.676Z,14.82
2023-12-15T04:39:21.524Z,14.73
2023-12-15T04:44:53.567Z,16.00
2023-12-15T04:50:21.641Z,13.20
2023-12-15T04:55:45.555Z,15.20
2023-12-15T05:01:10.574Z,14.57
2023-12-15T05:06:39.605Z,15.05
2023-12-15T05:12:04.593Z,14.85
2023-12-15T05:17:30.575Z,15.63
2023-12-15T05:22:58.580Z,16.35
2023-12-15T05:28:23.555Z,16.10
2023-12-15T05:33:48.653Z,18.23
2023-12-15T05:39:15.578Z,18.65
2023-12-15T05:44:40.585Z,20.65
2023-12-15T05:50:04.688Z,20.38
2023-12-15T05:55:32.564Z,17.55
2023-12-15T06:00:57.631Z,17.40
2023-12-15T06:06:23.663Z,18.13
2023-12-15T06:11:56.574Z,18.88
2023-12-15T06:17:21.595Z,16.73
2023-12-15T06:22:45.578Z,17.60
2023-12-15T06:28:13.575Z,18.13
2023-12-15T06:33:37.652Z,18.10
2023-12-15T06:39:02.587Z,17.10
2023-12-15T06:44:37.658Z,17.75
2023-12-15T06:50:02.655Z,16.40
2023-12-15T06:55:26.628Z,17.50
2023-12-15T07:00:55.610Z,17.13
2023-12-15T07:06:19.788Z,18.65
2023-12-15T07:11:44.654Z,17.02
2023-12-15T07:17:11.612Z,16.45
2023-12-15T07:22:36.585Z,16.75
2023-12-15T07:28:01.589Z,18.08
2023-12-15T07:33:29.745Z,16.88
2023-12-15T07:38:53.642Z,16.23
2023-12-15T07:44:24.681Z,14.52
2023-12-15T07:49:52.647Z,13.85
2023-12-15T07:55:16.619Z,16.27
2023-12-15T08:00:41.634Z,12.90
2023-12-15T08:06:08.709Z,14.07
2023-12-15T08:11:33.658Z,13.15
2023-12-15T08:16:57.674Z,12.05
2023-12-15T08:22:25.640Z,14.15
2023-12-15T08:27:49.686Z,11.95
2023-12-15T08:33:14.744Z,12.45
2023-12-15T08:38:41.697Z,12.68
2023-12-15T08:44:11.474Z,11.65
2023-12-15T08:49:40.669Z,12.20
2023-12-15T08:55:08.649Z,11.60
2023-12-15T09:00:34.672Z,10.65
2023-12-15T09:06:21.248Z,11.20
2023-12-15T09:11:46.637Z,10.88
2023-12-15T09:17:13.672Z,11.10
2023-12-15T09:22:37.644Z,10.55
2023-12-15T09:28:05.650Z,10.95
2023-12-15T09:33:29.769Z,14.23
2023-12-15T09:38:55.657Z,11.60
2023-12-15T09:44:30.659Z,11.27
2023-12-15T09:50:01.732Z,11.70
2023-12-15T09:55:26.702Z,10.48
2023-12-15T10:00:54.703Z,10.90
2023-12-15T10:06:18.705Z,9.07
2023-12-15T10:11:43.685Z,9.10
2023-12-15T10:17:10.732Z,8.68
2023-12-15T10:22:35.994Z,8.63
2023-12-15T10:28:02.236Z,9.02
2023-12-15T10:33:30.777Z,11.23
2023-12-15T10:38:55.690Z,9.82
2023-12-15T10:44:22.699Z,9.45
2023-12-15T10:49:53.143Z,9.15
2023-12-15T10:55:21.789Z,8.52
2023-12-15T11:00:46.691Z,9.13
2023-12-15T11:06:15.775Z,9.45
2023-12-15T11:11:39.739Z,10.48
2023-12-15T11:17:04.824Z,9.85
2023-12-15T11:22:31.688Z,9.07
2023-12-15T11:28:18.679Z,9.18
2023-12-15T11:33:57.878Z,8.23
2023-12-15T11:39:35.742Z,8.23
2023-12-15T11:45:06.711Z,7.78
2023-12-15T11:50:32.754Z,8.75
2023-12-15T11:56:00.684Z,8.48
2023-12-15T12:01:25.704Z,8.43
2023-12-15T12:06:49.707Z,7.55
2023-12-15T12:12:17.712Z,8.18
2023-12-15T12:17:43.785Z,7.20
2023-12-15T12:23:08.760Z,9.52
2023-12-15T12:28:35.711Z,7.45
2023-12-15T12:34:00.831Z,9.02
2023-12-15T12:39:24.721Z,8.15
2023-12-15T12:44:52.718Z,8.68
2023-12-15T12:50:18.080Z,9.45
2023-12-15T12:55:42.747Z,7.07
2023-12-15T13:01:09.871Z,6.22
2023-12-15T13:06:34.792Z,7.03
2023-12-15T13:11:58.749Z,7.38
2023-12-15T13:17:26.787Z,7.13
2023-12-15T13:22:51.295Z,7.10
2023-12-15T13:28:17.748Z,7.45
2023-12-15T13:33:46.876Z,6.82
2023-12-15T13:39:12.813Z,8.52
2023-12-15T13:44:43.795Z,8.63
2023-12-15T13:50:11.817Z,7.63
2023-12-15T13:55:35.788Z,5.13
2023-12-15T14:01:00.837Z,6.50
2023-12-15T14:06:29.331Z,6.68
2023-12-15T14:11:54.793Z,6.97
2023-12-15T14:17:18.819Z,8.18
2023-12-15T14:22:46.771Z,6.90
2023-12-15T14:28:10.818Z,9.32
2023-12-15T14:33:35.881Z,6.97
2023-12-15T14:39:02.806Z,7.78
2023-12-15T14:44:27.864Z,7.43
2023-12-15T14:49:52.853Z,9.27
2023-12-15T14:55:20.815Z,7.40
2023-12-15T15:00:44.841Z,6.90
2023-12-15T15:06:10.903Z,7.97
2023-12-15T15:11:38.898Z,8.52
2023-12-15T15:17:03.795Z,7.90
2023-12-15T15:22:34.994Z,8.50
2023-12-15T15:28:02.850Z,8.83
2023-12-15T15:33:27.884Z,9.45
2023-12-15T15:38:52.832Z,8.48
2023-12-15T15:44:22.318Z,9.75
2023-12-15T15:49:47.809Z,9.15
2023-12-15T15:55:12.838Z,8.95
2023-12-15T16:00:40.941Z,9.70
2023-12-15T16:06:04.859Z,8.65
2023-12-15T16:11:29.877Z,8.25
2023-12-15T16:16:56.861Z,10.20
2023-12-15T16:22:21.840Z,9.00
2023-12-15T16:27:45.837Z,8.10
2023-12-15T16:33:14.932Z,11.45
2023-12-15T16:38:40.830Z,11.70
2023-12-15T16:44:05.845Z,11.93
2023-12-15T16:49:32.880Z,11.95
2023-12-15T16:54:57.864Z,11.65
2023-12-15T17:00:27.861Z,12.52
2023-12-15T17:05:55.909Z,10.25
2023-12-15T17:11:20.844Z,9.52
2023-12-15T17:16:45.907Z,12.68
2023-12-15T17:22:12.960Z,10.98
2023-12-15T17:27:37.888Z,9.02
2023-12-15T17:33:01.915Z,8.80
2023-12-15T17:38:29.876Z,10.98
2023-12-15T17:43:55.889Z,7.75
2023-12-15T17:49:21.015Z,8.90
2023-12-15T17:54:47.911Z,9.27
2023-12-15T18:00:13.881Z,8.48
2023-12-15T18:05:37.899Z,6.25
2023-12-15T18:11:05.892Z,8.15
2023-12-15T18:16:36.991Z,10.05
2023-12-15T18:22:02.012Z,8.65
2023-12-15T18:27:30.994Z,6.75
2023-12-15T18:32:55.921Z,8.23
2023-12-15T18:38:19.869Z,6.80
2023-12-15T18:43:55.930Z,7.68
2023-12-15T18:49:21.982Z,8.20
2023-12-15T18:54:46.955Z,7.53
2023-12-15T19:00:19.847Z,8.70
2023-12-15T19:05:44.913Z,7.57
2023-12-15T19:11:10.892Z,8.18
2023-12-15T19:16:37.888Z,9.68
2023-12-15T19:22:02.905Z,8.80
2023-12-15T19:27:26.919Z,8.95
2023-12-15T19:32:55.006Z,8.20
2023-12-15T19:38:18.935Z,8.75
2023-12-15T19:43:45.910Z,8.40
2023-12-15T19:49:12.972Z,8.05
2023-12-15T19:54:37.963Z,9.23
2023-12-15T20:00:02.958Z,8.45
2023-12-15T20:05:31.031Z,8.82
2023-12-15T20:10:54.945Z,6.65
2023-12-15T20:16:20.019Z,7.15
2023-12-15T20:21:48.050Z,8.48
2023-12-15T20:27:19.944Z,10.13
2023-12-15T20:32:45.127Z,8.85
2023-12-15T20:38:12.952Z,9.75
2023-12-15T20:43:36.971Z,11.82
2023-12-15T20:49:02.047Z,12.25
2023-12-15T20:54:29.003Z,11.48
2023-12-15T20:59:53.953Z,9.15
2023-12-15T21:05:20.058Z,9.07
2023-12-15T21:10:47.982Z,9.77
2023-12-15T21:16:14.024Z,9.10
2023-12-15T21:21:41.966Z,9.20
2023-12-15T21:27:09.982Z,7.97
2023-12-15T21:32:34.982Z,9.25
2023-12-15T21:37:58.960Z,9.55
2023-12-15T21:43:27.050Z,8.68
2023-12-15T21:48:52.073Z,6.03
2023-12-15T21:54:16.958Z,8.27
2023-12-15T21:59:43.982Z,10.32
2023-12-15T22:05:08.960Z,7.13
2023-12-15T22:10:33.014Z,8.48
2023-12-15T22:16:01.018Z,7.45
2023-12-15T22:21:24.990Z,8.20
2023-12-15T22:26:52.985Z,7.13
2023-12-15T22:32:21.992Z,7.03
2023-12-15T22:37:46.996Z,7.53
2023-12-15T22:43:12.041Z,7.20
2023-12-15T22:48:40.130Z,5.40
2023-12-15T22:54:04.002Z,4.55
2023-12-15T22:59:29.078Z,9.20
2023-12-15T23:04:57.064Z,5.30
2023-12-15T23:10:22.094Z,6.80
2023-12-15T23:15:46.072Z,5.95
2023-12-15T23:21:23.278Z,7.47
2023-12-15T23:26:50.031Z,5.72
2023-12-15T23:32:16.015Z,5.05
2023-12-15T23:37:42.993Z,7.65
2023-12-15T23:43:09.060Z,6.43
2023-12-15T23:48:33.090Z,6.60
2023-12-15T23:54:01.050Z,6.30
2023-12-15T23:59:33.397Z,5.28
